Airfield :
LOGIN :

Register | Disclaimer

   EN    FR    IT 

 










Legend :    VFR   Marginal VFR   IFR   Intensive IFR   Very Intensive IFR
Visi :
Ceiling :
>= 8 km
>= 3000ft
5 to 8 km
1000 to 3000 ft
1500m to 5 km
500 to 1000 ft
800 to 1500m
200 to 500 ft
< 800m
< 200 ft
Symbols :   Thunderstorms  Fog  Heavy snow  Heavy precipitations  Wind > 20 kt
SIGMETs :     Misc.  Thunderstorms  Icing  Turbulence  Mountain Waves  Volcanic Ashes






- Airport Elevation : 83 ft
- IATA code : LHR


EGLL - London Heathrow

CURRENT METAR :
  • 280620Z 19005KT 150V240 6000 SCT002 OVC015 07/06 Q1019 TEMPO 4000 BR BKN002

EXPIRED METARs :
  • 280550Z 20004KT 6000 BKN003 OVC016 07/06 Q1019 TEMPO 4000 BR
  • 280520Z AUTO 21005KT 9999 BKN005 OVC017 07/06 Q1019 TEMPO 4000 BR BKN002
  • 280450Z AUTO 21005KT 9999 BKN006 OVC015 07/06 Q1020 TEMPO BKN004
  • 280420Z AUTO 21004KT 9999 OVC006 07/06 Q1020 TEMPO BKN010
  • 280350Z AUTO 22001KT 9999 SCT006 OVC047 06/05 Q1020 TEMPO BKN006
  • 280320Z AUTO 28002KT 9999 FEW007 OVC048 06/05 Q1020 TEMPO BKN007
  • 280250Z AUTO 22004KT 9999 BKN011 06/05 Q1020 TEMPO BKN009
  • 280220Z AUTO 22004KT 9999 BKN010 06/05 Q1020 TEMPO BKN009
  • 280150Z AUTO 20004KT 9999 BKN011 07/05 Q1020 TEMPO BKN009

TAF TAF EGLL
Valid from the 28 at 06:00 until the 29 at 12:00 UTC


280455Z 2806/2912 21010KT 9999 SCT015
TEMPO 2806/2812 BKN006
PROB30
TEMPO 2806/2808 0500 FG BKN000
PROB40
TEMPO 2808/2810 4000 BR BKN004
BECMG 2812/2815 BKN012
TEMPO 2815/2902 7000 RA -RADZ
PROB40
TEMPO 2818/2902 3000 RADZ BKN005
TEMPO 2904/2912 6000 RA
PROB30
TEMPO 2904/2907 3000 RADZ BKN007
BECMG 2907/2909 29012KT BKN025



MET'MAP, your aeronautical weather chart ! - Copyright ORBIFLY December 2007 - Disclaimer

ORBIFLY MET'MAP TEAM :

Programming & Development : Alexandra Zaïnal
Original concept : Baudouin d'Aumeries
Technical & hardware support : Manuel Goepfert
Assistance : Marc-Olivier Méhu




SOURCES & CREDITS :

   NOAA